Uji, Japan
Current Conditions -  °F | °C
As of 7:00 PM on Friday 31 Oct 2014 (Local Time) from RJOO Reporting Station
Light Rain Light Rain  
Wind Chill: 66°   Ceiling: 7000
Heat Index: 66°   Visibility: 6mi
Dew Point: 61°   Wind: 7mph
Humidity: 83%   Direction: 60°ENE
Pressure: 30.12"   Gusts: NA
Location:  34.9°N, 135.8°E
Report Text: RJOO 311000Z 06006KT 030V090 9999 -RA FEW015 SCT050 BKN070 19/16 Q1020
Loading
Personal Weather Stations






























Interactive Weather Map
Tropical Storm Tracking
New forecast layout! Learn more

10-Day Weather Forecast

Advertisements
Track Severe Weather on mobile